createdAt,value
2023-05-15T00:01:02.638Z,11.98
2023-05-15T00:06:06.124Z,11.96
2023-05-15T00:11:07.922Z,11.90
2023-05-15T00:16:09.702Z,11.94
2023-05-15T00:21:12.674Z,11.93
2023-05-15T00:26:16.004Z,11.93
2023-05-15T00:31:17.700Z,11.93
2023-05-15T00:36:21.666Z,11.89
2023-05-15T00:41:28.786Z,11.83
2023-05-15T00:46:32.083Z,11.80
2023-05-15T00:51:33.697Z,11.82
2023-05-15T00:56:35.509Z,11.86
2023-05-15T01:01:37.387Z,11.86
2023-05-15T01:06:39.196Z,11.86
2023-05-15T01:11:42.634Z,11.84
2023-05-15T01:16:47.112Z,11.78
2023-05-15T01:22:10.267Z,11.79
2023-05-15T01:27:35.704Z,11.77
2023-05-15T01:32:52.394Z,11.77
2023-05-15T01:38:16.821Z,11.69
2023-05-15T01:43:24.319Z,11.60
2023-05-15T01:48:28.478Z,11.64
2023-05-15T01:53:34.757Z,11.63
2023-05-15T01:58:38.974Z,11.61
2023-05-15T02:03:42.443Z,11.56
2023-05-15T02:08:46.640Z,11.52
2023-05-15T02:13:49.520Z,11.48
2023-05-15T02:18:52.734Z,11.50
2023-05-15T02:23:54.911Z,11.48
2023-05-15T02:29:12.558Z,11.47
2023-05-15T02:34:48.438Z,11.42
2023-05-15T02:39:54.401Z,11.37
2023-05-15T02:44:58.598Z,11.32
2023-05-15T02:50:00.633Z,11.34
2023-05-15T02:55:02.296Z,11.28
2023-05-15T03:00:07.431Z,11.26
2023-05-15T03:05:10.145Z,11.23
2023-05-15T03:10:11.941Z,11.14
2023-05-15T03:15:13.562Z,11.11
2023-05-15T03:20:15.375Z,11.13
2023-05-15T03:25:17.256Z,11.14
2023-05-15T03:30:18.962Z,11.08
2023-05-15T03:35:20.597Z,11.09
2023-05-15T03:40:22.184Z,11.12
2023-05-15T03:45:24.199Z,11.25
2023-05-15T03:50:26.024Z,11.17
2023-05-15T03:55:27.834Z,11.16
2023-05-15T04:00:29.584Z,11.18
2023-05-15T04:05:31.237Z,11.16
2023-05-15T04:10:33.738Z,11.20
2023-05-15T04:15:35.657Z,11.25
2023-05-15T04:20:37.402Z,11.12
2023-05-15T04:25:39.685Z,11.14
2023-05-15T04:30:41.705Z,11.19
2023-05-15T04:35:43.560Z,11.27
2023-05-15T04:40:46.856Z,11.27
2023-05-15T04:45:49.017Z,11.32
2023-05-15T04:50:51.433Z,11.39
2023-05-15T04:55:53.715Z,11.34
2023-05-15T05:00:55.533Z,11.31
2023-05-15T05:05:57.154Z,11.29
2023-05-15T05:10:58.811Z,11.36
2023-05-15T05:16:00.532Z,11.45
2023-05-15T05:21:03.645Z,11.53
2023-05-15T05:26:06.215Z,11.68
2023-05-15T05:31:08.201Z,11.73
2023-05-15T05:36:09.990Z,11.81
2023-05-15T05:41:11.655Z,11.85
2023-05-15T05:46:13.425Z,11.77
2023-05-15T05:51:20.035Z,11.87
2023-05-15T05:56:22.704Z,11.97
2023-05-15T06:01:24.444Z,11.97
2023-05-15T06:06:26.046Z,12.14
2023-05-15T06:11:27.720Z,12.07
2023-05-15T06:16:29.415Z,12.18
2023-05-15T06:21:31.290Z,12.23
2023-05-15T06:26:32.964Z,12.31
2023-05-15T06:31:34.668Z,12.25
2023-05-15T06:36:37.223Z,12.28
2023-05-15T06:41:38.819Z,12.27
2023-05-15T06:46:46.879Z,12.35
2023-05-15T06:51:48.578Z,12.26
2023-05-15T06:56:50.356Z,12.67
2023-05-15T07:01:52.074Z,12.65
2023-05-15T07:06:53.687Z,12.48
2023-05-15T07:11:55.301Z,12.50
2023-05-15T07:16:57.011Z,12.42
2023-05-15T07:21:58.670Z,12.32
2023-05-15T07:27:00.394Z,12.36
2023-05-15T07:32:02.089Z,12.40
2023-05-15T07:37:03.884Z,12.29
2023-05-15T07:42:05.840Z,12.28
2023-05-15T07:47:07.736Z,12.28
2023-05-15T07:52:09.307Z,12.38
2023-05-15T07:57:11.048Z,12.51
2023-05-15T08:02:12.750Z,12.53
2023-05-15T08:07:15.199Z,12.48
2023-05-15T08:12:17.728Z,12.49
2023-05-15T08:17:20.749Z,12.43
2023-05-15T08:22:22.614Z,12.42
2023-05-15T08:27:24.250Z,12.42
2023-05-15T08:32:26.833Z,12.38
2023-05-15T08:37:28.552Z,12.45
2023-05-15T08:42:43.006Z,12.50
2023-05-15T08:47:45.058Z,12.53
2023-05-15T08:52:47.873Z,12.67
2023-05-15T08:57:50.552Z,12.58
2023-05-15T09:02:54.528Z,12.52
2023-05-15T09:07:58.869Z,12.46
2023-05-15T09:13:02.442Z,12.45
2023-05-15T09:18:04.458Z,12.57
2023-05-15T09:23:22.171Z,12.53
2023-05-15T09:28:31.590Z,12.46
2023-05-15T09:33:35.640Z,12.67
2023-05-15T09:38:42.908Z,12.73
2023-05-15T09:43:46.161Z,12.80
2023-05-15T09:48:47.954Z,12.87
2023-05-15T09:53:52.041Z,13.04
2023-05-15T09:59:00.888Z,13.18
2023-05-15T10:04:06.539Z,13.13
2023-05-15T10:09:08.655Z,12.98
2023-05-15T10:14:13.179Z,13.18
2023-05-15T10:19:17.220Z,13.17
2023-05-15T10:24:21.693Z,13.45
2023-05-15T10:29:25.678Z,13.60
2023-05-15T10:34:28.912Z,13.68
2023-05-15T10:39:30.968Z,13.55
2023-05-15T10:44:32.584Z,13.54
2023-05-15T10:49:35.756Z,13.34
2023-05-15T10:54:37.500Z,13.48
2023-05-15T10:59:41.495Z,13.42
2023-05-15T11:04:46.904Z,13.51
2023-05-15T11:09:48.577Z,13.57
2023-05-15T11:14:55.864Z,13.46
2023-05-15T11:19:58.586Z,13.59
2023-05-15T11:25:01.629Z,13.71
2023-05-15T11:30:22.936Z,13.46
2023-05-15T11:36:00.711Z,13.53
2023-05-15T11:41:03.572Z,13.61
2023-05-15T11:46:07.936Z,13.75
2023-05-15T11:51:26.371Z,13.75
2023-05-15T11:56:30.827Z,13.81
2023-05-15T12:01:43.199Z,13.94
2023-05-15T12:06:49.861Z,13.83
2023-05-15T12:11:55.959Z,13.79
2023-05-15T12:17:07.238Z,13.89
2023-05-15T12:22:09.137Z,13.79
2023-05-15T12:27:12.936Z,13.70
2023-05-15T12:32:17.219Z,13.41
2023-05-15T12:37:23.249Z,13.40
2023-05-15T12:42:25.215Z,13.59
2023-05-15T12:47:29.221Z,13.83
2023-05-15T12:52:31.439Z,13.69
2023-05-15T12:57:34.045Z,13.63
2023-05-15T13:02:36.930Z,13.62
2023-05-15T13:07:43.902Z,13.61
2023-05-15T13:12:46.547Z,13.71
2023-05-15T13:17:48.373Z,13.38
2023-05-15T13:22:50.067Z,13.37
2023-05-15T13:27:51.763Z,13.12
2023-05-15T13:32:55.513Z,13.23
2023-05-15T13:37:57.548Z,13.15
2023-05-15T13:42:59.256Z,13.38
2023-05-15T13:48:00.967Z,13.19
2023-05-15T13:53:02.653Z,13.17
2023-05-15T13:58:04.253Z,13.31
2023-05-15T14:03:06.481Z,13.14
2023-05-15T14:08:08.205Z,13.30
2023-05-15T14:13:10.209Z,13.56
2023-05-15T14:18:13.325Z,13.27
2023-05-15T14:23:16.924Z,13.19
2023-05-15T14:28:19.250Z,13.22
2023-05-15T14:33:21.012Z,13.07
2023-05-15T14:38:22.739Z,13.06
2023-05-15T14:43:25.049Z,13.33
2023-05-15T14:48:26.738Z,13.14
2023-05-15T14:53:28.362Z,13.28
2023-05-15T14:58:30.646Z,13.42
2023-05-15T15:03:34.028Z,13.26
2023-05-15T15:08:36.178Z,13.07
2023-05-15T15:13:37.947Z,13.05
2023-05-15T15:18:39.523Z,13.41
2023-05-15T15:23:41.124Z,13.10
2023-05-15T15:28:42.719Z,13.28
2023-05-15T15:33:46.611Z,13.26
2023-05-15T15:38:48.983Z,13.11
2023-05-15T15:43:50.707Z,12.87
2023-05-15T15:48:52.326Z,13.04
2023-05-15T15:53:54.039Z,13.05
2023-05-15T15:58:55.610Z,12.25
2023-05-15T16:03:57.373Z,11.91
2023-05-15T16:08:59.817Z,11.74
2023-05-15T16:14:01.436Z,11.56
2023-05-15T16:19:03.224Z,12.97
2023-05-15T16:24:05.407Z,13.19
2023-05-15T16:29:07.154Z,13.39
2023-05-15T16:34:09.300Z,13.26
2023-05-15T16:39:11.209Z,13.66
2023-05-15T16:44:12.873Z,13.37
2023-05-15T16:49:16.584Z,13.57
2023-05-15T16:54:18.370Z,13.71
2023-05-15T16:59:19.971Z,13.62
2023-05-15T17:04:21.630Z,13.34
2023-05-15T17:09:23.251Z,13.89
2023-05-15T17:14:25.023Z,13.68
2023-05-15T17:19:26.664Z,13.53
2023-05-15T17:24:35.576Z,13.21
2023-05-15T17:29:40.908Z,13.16
2023-05-15T17:34:43.456Z,13.23
2023-05-15T17:39:45.783Z,12.78
2023-05-15T17:44:47.822Z,12.88
2023-05-15T17:49:49.548Z,12.94
2023-05-15T17:54:51.273Z,12.89
2023-05-15T17:59:52.988Z,12.74
2023-05-15T18:04:54.706Z,13.46
2023-05-15T18:09:56.416Z,12.60
2023-05-15T18:14:58.060Z,12.57
2023-05-15T18:19:59.795Z,13.14
2023-05-15T18:25:02.062Z,13.13
2023-05-15T18:30:04.633Z,12.59
2023-05-15T18:35:06.804Z,12.27
2023-05-15T18:40:09.577Z,13.00
2023-05-15T18:45:13.141Z,13.68
2023-05-15T18:50:16.124Z,13.82
2023-05-15T18:55:17.990Z,13.20
2023-05-15T19:00:36.490Z,13.63
2023-05-15T19:05:39.363Z,13.23
2023-05-15T19:10:50.552Z,13.22
2023-05-15T19:15:52.935Z,13.48
2023-05-15T19:20:54.571Z,13.25
2023-05-15T19:25:56.205Z,12.83
2023-05-15T19:30:57.951Z,12.92
2023-05-15T19:35:59.632Z,12.33
2023-05-15T19:41:01.393Z,12.13
2023-05-15T19:46:03.536Z,12.83
2023-05-15T19:51:05.307Z,13.07
2023-05-15T19:56:07.353Z,12.67
2023-05-15T20:01:09.108Z,12.78
2023-05-15T20:06:12.249Z,12.94
2023-05-15T20:11:13.859Z,12.24
2023-05-15T20:16:17.032Z,11.89
2023-05-15T20:21:18.667Z,11.60
2023-05-15T20:26:22.346Z,11.66
2023-05-15T20:31:24.069Z,12.04
2023-05-15T20:36:26.193Z,11.89
2023-05-15T20:41:27.848Z,11.99
2023-05-15T20:46:30.668Z,11.56
2023-05-15T20:51:33.121Z,11.63
2023-05-15T20:56:34.728Z,11.77
2023-05-15T21:01:36.761Z,11.99
2023-05-15T21:06:38.488Z,12.09
2023-05-15T21:11:40.082Z,11.52
2023-05-15T21:16:42.230Z,11.67
2023-05-15T21:21:43.822Z,11.41
2023-05-15T21:26:47.015Z,11.19
2023-05-15T21:31:48.772Z,11.64
2023-05-15T21:36:50.523Z,11.26
2023-05-15T21:41:52.480Z,10.99
2023-05-15T21:46:54.116Z,10.90
2023-05-15T21:51:56.153Z,11.09
2023-05-15T21:56:58.535Z,11.18
2023-05-15T22:02:00.206Z,11.22
2023-05-15T22:07:01.933Z,11.40
2023-05-15T22:12:03.768Z,11.06
2023-05-15T22:17:05.663Z,10.89
2023-05-15T22:22:07.562Z,10.79
2023-05-15T22:27:09.178Z,11.06
2023-05-15T22:32:10.894Z,10.88
2023-05-15T22:37:13.096Z,10.68
2023-05-15T22:42:15.131Z,10.55
2023-05-15T22:47:16.831Z,10.58
2023-05-15T22:52:18.763Z,10.66
2023-05-15T22:57:20.524Z,10.56
2023-05-15T23:02:22.217Z,10.61
2023-05-15T23:07:28.735Z,10.42
2023-05-15T23:12:30.916Z,10.53
2023-05-15T23:17:32.535Z,10.33
2023-05-15T23:22:34.348Z,10.28
2023-05-15T23:27:38.217Z,10.47
2023-05-15T23:32:39.980Z,10.53
2023-05-15T23:37:41.792Z,10.33
2023-05-15T23:42:43.423Z,10.29
2023-05-15T23:47:46.958Z,10.45
2023-05-15T23:52:48.649Z,10.44
2023-05-15T23:57:50.780Z,10.40
